Weather at Fedje Heliport, Høgden

Public forecast

Using degrees Celsius for public forecast. Weather courtesy of forecast.io.

Closest aviation weather report (METAR) to Fedje Heliport, Høgden

Closest report is Troll A Platform, 30.5 nm (56.5 km) WSW.

2024/05/22 20:50 (retrieved 1 hour ago)

ENQA 222050Z AUTO 09018KT CAVOK 21/03 Q1012 W///S3

Closest aviation forecast (TAF) to Fedje Heliport, Høgden

Closest forecast is Bergen Airport, Flesland, 31.8 nm (58.8 km) SSE.

2024/05/22 18:36 (retrieved 3 hours ago)

TAF ENBR 221700Z 2218/2318 12007KT CAVOK